createdAt,value
2019-04-05T00:00:02.266Z,58.4
2019-04-05T00:05:02.245Z,58.4
2019-04-05T00:10:02.250Z,58.9
2019-04-05T00:15:14.500Z,58.4
2019-04-05T00:20:02.518Z,58.4
2019-04-05T00:25:02.508Z,58.4
2019-04-05T00:30:01.942Z,58.4
2019-04-05T00:35:01.900Z,58.4
2019-04-05T00:40:01.752Z,58.4
2019-04-05T00:45:01.572Z,57.8
2019-04-05T00:50:01.552Z,57.8
2019-04-05T00:55:01.654Z,58.4
2019-04-05T01:00:01.658Z,57.8
2019-04-05T01:05:01.577Z,57.3
2019-04-05T01:10:02.141Z,57.3
2019-04-05T01:15:02.143Z,57.3
2019-04-05T01:20:02.321Z,57.3
2019-04-05T01:25:02.254Z,57.3
2019-04-05T01:30:02.151Z,57.3
2019-04-05T01:35:02.117Z,57.3
2019-04-05T01:40:01.986Z,57.3
2019-04-05T01:45:01.758Z,57.3
2019-04-05T01:50:02.079Z,56.8
2019-04-05T01:55:02.029Z,57.3
2019-04-05T02:00:01.546Z,57.3
2019-04-05T02:05:01.555Z,56.8
2019-04-05T02:10:02.681Z,56.8
2019-04-05T02:15:02.350Z,56.8
2019-04-05T02:20:02.434Z,56.2
2019-04-05T02:25:02.395Z,56.2
2019-04-05T02:30:02.484Z,56.8
2019-04-05T02:35:02.396Z,55.7
2019-04-05T02:40:01.879Z,56.2
2019-04-05T02:45:01.914Z,56.2
2019-04-05T02:50:01.949Z,56.2
2019-04-05T02:55:02.041Z,55.7
2019-04-05T03:00:01.670Z,55.7
2019-04-05T03:05:01.532Z,56.2
2019-04-05T03:10:02.180Z,55.7
2019-04-05T03:15:01.768Z,55.7
2019-04-05T03:20:01.967Z,55.7
2019-04-05T03:25:01.914Z,55.1
2019-04-05T03:30:02.287Z,55.7
2019-04-05T03:35:02.185Z,55.7
2019-04-05T03:40:02.292Z,55.7
2019-04-05T03:45:02.063Z,55.7
2019-04-05T03:50:01.715Z,55.1
2019-04-05T03:55:01.618Z,55.7
2019-04-05T04:00:02.297Z,55.1
2019-04-05T04:05:02.317Z,55.7
2019-04-05T04:10:01.912Z,55.1
2019-04-05T04:15:01.882Z,55.1
2019-04-05T04:20:01.577Z,55.1
2019-04-05T04:25:01.762Z,55.1
2019-04-05T04:30:02.176Z,55.1
2019-04-05T04:35:02.135Z,55.1
2019-04-05T04:40:01.606Z,55.1
2019-04-05T04:45:11.663Z,54.1
2019-04-05T04:50:02.206Z,54.1
2019-04-05T04:55:02.149Z,54.1
2019-04-05T05:00:01.679Z,54.1
2019-04-05T05:05:01.691Z,53.5
2019-04-05T05:10:03.339Z,53.5
2019-04-05T05:15:02.014Z,53.5
2019-04-05T05:20:02.265Z,53
2019-04-05T05:25:02.215Z,53.5
2019-04-05T05:30:02.415Z,53
2019-04-05T05:35:02.643Z,53.5
2019-04-05T05:40:01.734Z,54.1
2019-04-05T05:45:01.699Z,54.1
2019-04-05T05:50:01.811Z,54.1
2019-04-05T05:55:01.633Z,54.1
2019-04-05T06:00:02.144Z,54.1
2019-04-05T06:05:02.360Z,54.1
2019-04-05T06:10:01.681Z,53.5
2019-04-05T06:15:01.636Z,55.1
2019-04-05T06:20:02.180Z,54.1
2019-04-05T06:25:02.279Z,54.6
2019-04-05T06:30:02.429Z,54.6
2019-04-05T06:35:02.322Z,54.1
2019-04-05T06:40:02.446Z,54.6
2019-04-05T06:45:02.415Z,54.1
2019-04-05T06:50:01.642Z,54.6
2019-04-05T06:55:01.510Z,54.1
2019-04-05T07:00:02.285Z,55.1
2019-04-05T07:05:02.293Z,55.1
2019-04-05T07:10:01.669Z,55.1
2019-04-05T07:15:02.218Z,55.1
2019-04-05T07:20:01.798Z,54.1
2019-04-05T07:25:01.696Z,55.1
2019-04-05T07:30:02.505Z,55.1
2019-04-05T07:35:02.455Z,55.7
2019-04-05T07:40:02.020Z,55.1
2019-04-05T07:45:01.846Z,55.7
2019-04-05T07:50:01.963Z,55.7
2019-04-05T07:55:01.831Z,55.1
2019-04-05T08:00:02.596Z,55.1
2019-04-05T08:05:02.360Z,55.7
2019-04-05T08:10:03.072Z,55.1
2019-04-05T08:15:01.805Z,55.7
2019-04-05T08:20:02.143Z,55.7
2019-04-05T08:25:01.928Z,55.7
2019-04-05T08:30:02.011Z,55.7
2019-04-05T08:35:01.841Z,56.2
2019-04-05T08:40:02.257Z,55.7
2019-04-05T08:45:02.228Z,55.7
2019-04-05T08:50:01.788Z,56.2
2019-04-05T08:55:01.857Z,55.7
2019-04-05T09:00:02.217Z,55.7
2019-04-05T09:05:02.192Z,55.1
2019-04-05T09:10:01.724Z,55.1
2019-04-05T09:15:01.768Z,55.1
2019-04-05T09:20:02.301Z,55.7
2019-04-05T09:25:02.244Z,55.1
2019-04-05T09:30:01.853Z,55.7
2019-04-05T09:35:01.801Z,55.1
2019-04-05T09:40:01.897Z,55.1
2019-04-05T09:45:02.298Z,55.1
2019-04-05T09:50:01.933Z,55.1
2019-04-05T09:55:02.111Z,55.1
2019-04-05T10:00:02.081Z,55.7
2019-04-05T10:05:02.079Z,56.2
2019-04-05T10:10:02.279Z,55.7
2019-04-05T10:15:02.277Z,56.2
2019-04-05T10:20:02.351Z,55.1
2019-04-05T10:25:02.318Z,55.7
2019-04-05T10:30:01.533Z,55.7
2019-04-05T10:35:01.658Z,55.7
2019-04-05T10:40:02.103Z,55.7
2019-04-05T10:45:02.004Z,55.7
2019-04-05T10:50:03.670Z,55.7
2019-04-05T10:55:02.373Z,56.2
2019-04-05T11:00:02.000Z,55.7
2019-04-05T11:05:01.957Z,56.2
2019-04-05T11:10:02.384Z,57.3
2019-04-05T11:15:02.301Z,56.2
2019-04-05T11:20:05.274Z,57.3
2019-04-05T11:25:02.435Z,57.3
2019-04-05T11:30:02.507Z,57.3
2019-04-05T11:35:02.395Z,57.3
2019-04-05T11:40:02.533Z,57.3
2019-04-05T11:45:01.533Z,57.3
2019-04-05T11:50:01.740Z,57.3
2019-04-05T11:55:04.520Z,57.3
2019-04-05T12:00:01.925Z,57.3
2019-04-05T12:05:02.033Z,57.3
2019-04-05T12:10:01.886Z,57.3
2019-04-05T12:15:02.355Z,57.3
2019-04-05T12:20:03.439Z,54.1
2019-04-05T12:25:02.789Z,49.8
2019-04-05T12:30:01.918Z,44.4
2019-04-05T12:35:01.922Z,41.7
2019-04-05T12:40:04.896Z,41.2
2019-04-05T12:45:01.942Z,42.2
2019-04-05T12:50:01.751Z,42.2
2019-04-05T12:55:01.641Z,42.2
2019-04-05T13:00:02.480Z,42.8
2019-04-05T13:05:01.919Z,43.3
2019-04-05T13:10:02.338Z,38.5
2019-04-05T13:15:11.599Z,35.8
2019-04-05T13:20:02.419Z,35.8
2019-04-05T13:25:01.635Z,34.7
2019-04-05T13:30:02.438Z,35.8
2019-04-05T13:35:01.970Z,35.8
2019-04-05T13:40:01.635Z,35.8
2019-04-05T13:45:01.825Z,35.8
2019-04-05T13:50:02.449Z,36.9
2019-04-05T13:55:01.892Z,36.9
2019-04-05T14:00:02.091Z,38.5
2019-04-05T14:05:01.662Z,38.5
2019-04-05T14:10:02.331Z,39
2019-04-05T14:15:01.527Z,39
2019-04-05T14:20:01.701Z,40.1
2019-04-05T14:25:02.523Z,39
2019-04-05T14:30:03.052Z,40.1
2019-04-05T14:35:01.656Z,40.1
2019-04-05T14:40:02.334Z,40.1
2019-04-05T14:45:01.540Z,40.1
2019-04-05T14:50:01.846Z,40.1
2019-04-05T14:55:02.014Z,40.1
2019-04-05T15:00:02.271Z,40.1
2019-04-05T15:05:01.584Z,40.1
2019-04-05T15:10:03.780Z,40.6
2019-04-05T15:15:01.529Z,40.1
2019-04-05T15:20:04.591Z,40.1
2019-04-05T15:25:01.861Z,40.1
2019-04-05T15:30:01.886Z,40.1
2019-04-05T15:35:01.837Z,40.1
2019-04-05T15:40:02.586Z,39
2019-04-05T15:45:01.847Z,38.5
2019-04-05T15:50:02.511Z,39
2019-04-05T15:55:03.693Z,38.5
2019-04-05T16:00:04.631Z,37.9
2019-04-05T16:05:02.333Z,36.9
2019-04-05T16:10:02.025Z,36.9
2019-04-05T16:15:02.215Z,36.3
2019-04-05T16:20:02.597Z,36.3
2019-04-05T16:25:03.688Z,36.3
2019-04-05T16:30:02.298Z,35.8
2019-04-05T16:35:02.498Z,35.8
2019-04-05T16:40:02.263Z,35.2
2019-04-05T16:45:02.519Z,34.7
2019-04-05T16:50:01.662Z,34.7
2019-04-05T16:55:01.643Z,34.7
2019-04-05T17:00:02.271Z,34.7
2019-04-05T17:05:02.474Z,34.2
2019-04-05T17:10:02.057Z,33.6
2019-04-05T17:15:02.194Z,34.2
2019-04-05T17:20:02.429Z,34.2
2019-04-05T17:25:01.602Z,33.1
2019-04-05T17:30:01.791Z,33.6
2019-04-05T17:35:01.981Z,32.6
2019-04-05T17:40:01.639Z,32.6
2019-04-05T17:45:01.801Z,32.6
2019-04-05T17:50:01.879Z,32.6
2019-04-05T17:55:01.998Z,32.6
2019-04-05T18:00:02.190Z,32.6
2019-04-05T18:05:02.194Z,32.6
2019-04-05T18:10:01.925Z,32.6
2019-04-05T18:15:02.081Z,32.6
2019-04-05T18:20:02.330Z,32
2019-04-05T18:25:02.549Z,32
2019-04-05T18:30:01.780Z,32.6
2019-04-05T18:35:01.864Z,32
2019-04-05T18:40:02.565Z,32
2019-04-05T18:45:01.743Z,32
2019-04-05T18:50:03.040Z,32
2019-04-05T18:55:01.979Z,31.5
2019-04-05T19:00:02.151Z,32
2019-04-05T19:05:02.313Z,31.5
2019-04-05T19:10:02.000Z,31.5
2019-04-05T19:15:02.187Z,31.5
2019-04-05T19:20:02.539Z,31.5
2019-04-05T19:25:04.672Z,31.5
2019-04-05T19:50:02.454Z,32
2019-04-05T19:55:01.622Z,31.5
2019-04-05T20:00:01.791Z,31.5
2019-04-05T20:05:02.012Z,31.5
2019-04-05T20:10:02.298Z,31.5
2019-04-05T20:15:02.502Z,31.5
2019-04-05T20:20:01.746Z,31.5
2019-04-05T20:25:01.930Z,31.5
2019-04-05T20:30:02.116Z,31.5
2019-04-05T20:35:02.321Z,30.9
2019-04-05T20:40:02.035Z,31.5
2019-04-05T20:45:02.174Z,31.5
2019-04-05T20:50:02.364Z,30.9
2019-04-05T20:55:01.698Z,30.9
2019-04-05T21:00:01.879Z,31.5
2019-04-05T21:05:02.078Z,31.5
2019-04-05T21:10:01.672Z,31.5
2019-04-05T21:15:01.831Z,30.9
2019-04-05T21:20:02.531Z,30.9
2019-04-05T21:25:01.607Z,30.9
2019-04-05T21:30:01.785Z,30.9
2019-04-05T21:35:01.928Z,30.4
2019-04-05T21:40:01.606Z,30.4
2019-04-05T21:45:01.767Z,30.9
2019-04-05T21:50:01.992Z,30.9
2019-04-05T21:55:02.056Z,30.4
2019-04-05T22:00:01.756Z,31.5
2019-04-05T22:05:01.744Z,30.4
2019-04-05T22:10:02.371Z,30.4
2019-04-05T22:15:01.519Z,30.4
2019-04-05T22:20:01.764Z,30.4
2019-04-05T22:25:01.949Z,30.4
2019-04-05T22:30:02.165Z,30.4
2019-04-05T22:35:02.364Z,30.4
2019-04-05T22:40:02.025Z,30.4
2019-04-05T22:45:02.182Z,29.9
2019-04-05T22:50:02.235Z,30.4
2019-04-05T22:55:10.799Z,29.3
2019-04-05T23:00:02.441Z,29.9
2019-04-05T23:05:01.655Z,29.9
2019-04-05T23:10:02.320Z,29.9
2019-04-05T23:15:02.508Z,29.9
2019-04-05T23:20:01.729Z,29.9
2019-04-05T23:25:01.856Z,29.3
2019-04-05T23:30:02.115Z,29.3
2019-04-05T23:35:02.175Z,29.3
2019-04-05T23:40:02.332Z,29.9
2019-04-05T23:45:02.505Z,29.9
2019-04-05T23:50:01.657Z,29.9
2019-04-05T23:55:01.819Z,29.3
